sensor_id;sensor_type;location;lat;lon;timestamp;P1;durP1;ratioP1;P2;durP2;ratioP2
11735;SDS011;5924;51.398;7.088;2023-06-26T00:01:27;8.43;;;6.43;;
11735;SDS011;5924;51.398;7.088;2023-06-26T00:03:59;6.90;;;6.43;;
11735;SDS011;5924;51.398;7.088;2023-06-26T00:06:26;6.67;;;6.17;;
11735;SDS011;5924;51.398;7.088;2023-06-26T00:08:52;6.13;;;5.73;;
11735;SDS011;5924;51.398;7.088;2023-06-26T00:11:19;6.17;;;5.70;;
11735;SDS011;5924;51.398;7.088;2023-06-26T00:13:45;6.33;;;5.93;;
11735;SDS011;5924;51.398;7.088;2023-06-26T00:16:11;6.13;;;5.63;;
11735;SDS011;5924;51.398;7.088;2023-06-26T00:18:37;6.07;;;5.67;;
11735;SDS011;5924;51.398;7.088;2023-06-26T00:21:02;5.83;;;5.33;;
11735;SDS011;5924;51.398;7.088;2023-06-26T00:23:28;6.00;;;5.60;;
11735;SDS011;5924;51.398;7.088;2023-06-26T00:25:55;5.93;;;5.53;;
11735;SDS011;5924;51.398;7.088;2023-06-26T00:28:21;5.10;;;4.80;;
11735;SDS011;5924;51.398;7.088;2023-06-26T00:30:47;6.20;;;5.80;;
11735;SDS011;5924;51.398;7.088;2023-06-26T00:33:12;7.57;;;6.87;;
11735;SDS011;5924;51.398;7.088;2023-06-26T00:35:38;5.57;;;5.17;;
11735;SDS011;5924;51.398;7.088;2023-06-26T00:38:04;6.50;;;6.00;;
11735;SDS011;5924;51.398;7.088;2023-06-26T00:40:29;6.87;;;6.30;;
11735;SDS011;5924;51.398;7.088;2023-06-26T00:42:55;5.90;;;5.50;;
11735;SDS011;5924;51.398;7.088;2023-06-26T00:45:21;5.93;;;5.63;;
11735;SDS011;5924;51.398;7.088;2023-06-26T00:47:46;6.07;;;5.77;;
11735;SDS011;5924;51.398;7.088;2023-06-26T00:50:12;6.13;;;5.73;;
11735;SDS011;5924;51.398;7.088;2023-06-26T00:52:40;5.97;;;5.57;;
11735;SDS011;5924;51.398;7.088;2023-06-26T00:55:06;6.17;;;5.70;;
11735;SDS011;5924;51.398;7.088;2023-06-26T00:57:32;5.90;;;5.40;;
11735;SDS011;5924;51.398;7.088;2023-06-26T00:59:58;6.33;;;5.83;;
11735;SDS011;5924;51.398;7.088;2023-06-26T01:02:25;6.43;;;6.00;;
11735;SDS011;5924;51.398;7.088;2023-06-26T01:04:53;5.83;;;5.53;;
11735;SDS011;5924;51.398;7.088;2023-06-26T01:07:19;5.27;;;4.97;;
11735;SDS011;5924;51.398;7.088;2023-06-26T01:09:46;6.70;;;6.30;;
11735;SDS011;5924;51.398;7.088;2023-06-26T01:12:13;5.67;;;5.37;;
11735;SDS011;5924;51.398;7.088;2023-06-26T01:14:39;6.03;;;5.63;;
11735;SDS011;5924;51.398;7.088;2023-06-26T01:17:05;7.00;;;6.40;;
11735;SDS011;5924;51.398;7.088;2023-06-26T01:19:32;6.87;;;6.37;;
11735;SDS011;5924;51.398;7.088;2023-06-26T01:22:01;6.33;;;5.93;;
11735;SDS011;5924;51.398;7.088;2023-06-26T01:24:39;6.17;;;5.63;;
11735;SDS011;5924;51.398;7.088;2023-06-26T01:27:14;5.73;;;5.43;;
11735;SDS011;5924;51.398;7.088;2023-06-26T01:29:40;5.73;;;5.50;;
11735;SDS011;5924;51.398;7.088;2023-06-26T01:32:07;5.23;;;5.03;;
11735;SDS011;5924;51.398;7.088;2023-06-26T01:34:33;6.77;;;6.27;;
11735;SDS011;5924;51.398;7.088;2023-06-26T01:36:59;5.97;;;5.47;;
11735;SDS011;5924;51.398;7.088;2023-06-26T01:39:25;4.87;;;4.67;;
11735;SDS011;5924;51.398;7.088;2023-06-26T01:41:51;5.30;;;5.00;;
11735;SDS011;5924;51.398;7.088;2023-06-26T01:44:25;6.47;;;6.03;;
11735;SDS011;5924;51.398;7.088;2023-06-26T01:47:05;5.80;;;5.50;;
11735;SDS011;5924;51.398;7.088;2023-06-26T01:49:33;5.10;;;4.90;;
11735;SDS011;5924;51.398;7.088;2023-06-26T01:52:38;5.60;;;5.30;;
11735;SDS011;5924;51.398;7.088;2023-06-26T01:57:33;4.73;;;4.53;;
11735;SDS011;5924;51.398;7.088;2023-06-26T02:00:01;6.00;;;5.60;;
11735;SDS011;5924;51.398;7.088;2023-06-26T02:02:30;5.27;;;4.97;;
11735;SDS011;5924;51.398;7.088;2023-06-26T02:04:56;4.83;;;4.57;;
11735;SDS011;5924;51.398;7.088;2023-06-26T02:07:22;5.53;;;5.23;;
11735;SDS011;5924;51.398;7.088;2023-06-26T02:09:47;5.93;;;5.50;;
11735;SDS011;5924;51.398;7.088;2023-06-26T02:12:13;6.67;;;6.17;;
11735;SDS011;5924;51.398;7.088;2023-06-26T02:14:39;6.60;;;6.00;;
11735;SDS011;5924;51.398;7.088;2023-06-26T02:17:04;5.50;;;5.20;;
11735;SDS011;5924;51.398;7.088;2023-06-26T02:19:30;6.30;;;5.83;;
11735;SDS011;5924;51.398;7.088;2023-06-26T02:21:55;6.70;;;6.20;;
11735;SDS011;5924;51.398;7.088;2023-06-26T02:24:21;6.40;;;5.90;;
11735;SDS011;5924;51.398;7.088;2023-06-26T02:26:47;6.07;;;5.67;;
11735;SDS011;5924;51.398;7.088;2023-06-26T02:29:14;5.97;;;5.60;;
11735;SDS011;5924;51.398;7.088;2023-06-26T02:31:39;6.00;;;5.60;;
11735;SDS011;5924;51.398;7.088;2023-06-26T02:34:06;6.97;;;6.47;;
11735;SDS011;5924;51.398;7.088;2023-06-26T02:36:32;6.37;;;5.87;;
11735;SDS011;5924;51.398;7.088;2023-06-26T02:38:57;5.97;;;5.50;;
11735;SDS011;5924;51.398;7.088;2023-06-26T02:41:23;6.60;;;6.20;;
11735;SDS011;5924;51.398;7.088;2023-06-26T02:43:49;5.93;;;5.43;;
11735;SDS011;5924;51.398;7.088;2023-06-26T02:46:14;5.87;;;5.50;;
11735;SDS011;5924;51.398;7.088;2023-06-26T02:48:40;5.80;;;5.40;;
11735;SDS011;5924;51.398;7.088;2023-06-26T02:51:07;6.10;;;5.80;;
11735;SDS011;5924;51.398;7.088;2023-06-26T02:53:33;6.50;;;6.00;;
11735;SDS011;5924;51.398;7.088;2023-06-26T02:55:58;6.50;;;6.00;;
11735;SDS011;5924;51.398;7.088;2023-06-26T02:58:24;6.30;;;5.90;;
11735;SDS011;5924;51.398;7.088;2023-06-26T03:00:50;6.10;;;5.80;;
11735;SDS011;5924;51.398;7.088;2023-06-26T03:03:16;6.23;;;5.83;;
11735;SDS011;5924;51.398;7.088;2023-06-26T03:05:41;6.83;;;6.37;;
11735;SDS011;5924;51.398;7.088;2023-06-26T03:08:07;6.93;;;6.33;;
11735;SDS011;5924;51.398;7.088;2023-06-26T03:10:33;6.30;;;5.90;;
11735;SDS011;5924;51.398;7.088;2023-06-26T03:12:58;8.80;;;6.60;;
11735;SDS011;5924;51.398;7.088;2023-06-26T03:15:24;6.87;;;6.27;;
11735;SDS011;5924;51.398;7.088;2023-06-26T03:17:50;7.40;;;6.70;;
11735;SDS011;5924;51.398;7.088;2023-06-26T03:20:15;6.50;;;6.00;;
11735;SDS011;5924;51.398;7.088;2023-06-26T03:22:41;7.10;;;6.60;;
11735;SDS011;5924;51.398;7.088;2023-06-26T03:25:07;7.20;;;6.60;;
11735;SDS011;5924;51.398;7.088;2023-06-26T03:27:33;7.37;;;6.77;;
11735;SDS011;5924;51.398;7.088;2023-06-26T03:29:59;7.50;;;6.80;;
11735;SDS011;5924;51.398;7.088;2023-06-26T03:32:24;7.10;;;6.70;;
11735;SDS011;5924;51.398;7.088;2023-06-26T03:34:50;6.57;;;6.07;;
11735;SDS011;5924;51.398;7.088;2023-06-26T03:37:18;7.37;;;6.53;;
11735;SDS011;5924;51.398;7.088;2023-06-26T03:39:43;6.03;;;5.63;;
11735;SDS011;5924;51.398;7.088;2023-06-26T03:42:09;7.37;;;6.77;;
11735;SDS011;5924;51.398;7.088;2023-06-26T03:44:34;6.70;;;6.30;;
11735;SDS011;5924;51.398;7.088;2023-06-26T03:47:00;9.43;;;7.33;;
11735;SDS011;5924;51.398;7.088;2023-06-26T03:49:26;6.80;;;6.30;;
11735;SDS011;5924;51.398;7.088;2023-06-26T03:51:51;7.23;;;6.00;;
11735;SDS011;5924;51.398;7.088;2023-06-26T03:54:17;6.93;;;6.40;;
11735;SDS011;5924;51.398;7.088;2023-06-26T03:56:43;8.50;;;7.07;;
11735;SDS011;5924;51.398;7.088;2023-06-26T03:59:09;6.93;;;6.40;;
11735;SDS011;5924;51.398;7.088;2023-06-26T04:01:35;7.20;;;6.50;;
11735;SDS011;5924;51.398;7.088;2023-06-26T04:04:02;7.47;;;6.97;;
11735;SDS011;5924;51.398;7.088;2023-06-26T04:06:28;6.70;;;6.10;;
11735;SDS011;5924;51.398;7.088;2023-06-26T04:08:53;6.60;;;6.00;;
11735;SDS011;5924;51.398;7.088;2023-06-26T04:11:19;7.00;;;6.30;;
11735;SDS011;5924;51.398;7.088;2023-06-26T04:13:44;7.60;;;6.93;;
11735;SDS011;5924;51.398;7.088;2023-06-26T04:16:10;7.00;;;6.50;;
11735;SDS011;5924;51.398;7.088;2023-06-26T04:18:36;8.63;;;6.47;;
11735;SDS011;5924;51.398;7.088;2023-06-26T04:21:12;6.13;;;5.73;;
11735;SDS011;5924;51.398;7.088;2023-06-26T04:23:38;6.73;;;6.33;;
11735;SDS011;5924;51.398;7.088;2023-06-26T04:26:05;6.43;;;6.00;;
11735;SDS011;5924;51.398;7.088;2023-06-26T04:28:31;6.77;;;6.37;;
11735;SDS011;5924;51.398;7.088;2023-06-26T04:31:01;8.00;;;7.40;;
11735;SDS011;5924;51.398;7.088;2023-06-26T04:33:30;8.53;;;7.40;;
11735;SDS011;5924;51.398;7.088;2023-06-26T04:35:56;15.40;;;8.30;;
11735;SDS011;5924;51.398;7.088;2023-06-26T04:38:22;7.87;;;7.03;;
11735;SDS011;5924;51.398;7.088;2023-06-26T04:40:48;8.27;;;7.57;;
11735;SDS011;5924;51.398;7.088;2023-06-26T04:43:14;7.30;;;6.57;;
11735;SDS011;5924;51.398;7.088;2023-06-26T04:45:40;7.00;;;6.40;;
11735;SDS011;5924;51.398;7.088;2023-06-26T04:48:06;7.20;;;6.70;;
11735;SDS011;5924;51.398;7.088;2023-06-26T04:50:31;7.30;;;6.70;;
11735;SDS011;5924;51.398;7.088;2023-06-26T04:52:58;7.80;;;7.20;;
11735;SDS011;5924;51.398;7.088;2023-06-26T04:55:24;8.83;;;8.07;;
11735;SDS011;5924;51.398;7.088;2023-06-26T04:57:50;11.73;;;8.30;;
11735;SDS011;5924;51.398;7.088;2023-06-26T05:00:16;8.23;;;7.57;;
11735;SDS011;5924;51.398;7.088;2023-06-26T05:02:42;7.83;;;7.13;;
11735;SDS011;5924;51.398;7.088;2023-06-26T05:05:08;8.17;;;7.60;;
11735;SDS011;5924;51.398;7.088;2023-06-26T05:07:33;8.67;;;7.87;;
11735;SDS011;5924;51.398;7.088;2023-06-26T05:09:59;7.53;;;6.83;;
11735;SDS011;5924;51.398;7.088;2023-06-26T05:12:25;8.37;;;7.57;;
11735;SDS011;5924;51.398;7.088;2023-06-26T05:14:50;9.07;;;8.17;;
11735;SDS011;5924;51.398;7.088;2023-06-26T05:17:16;7.73;;;7.17;;
11735;SDS011;5924;51.398;7.088;2023-06-26T05:19:42;8.30;;;7.70;;
11735;SDS011;5924;51.398;7.088;2023-06-26T05:22:07;8.10;;;7.50;;
11735;SDS011;5924;51.398;7.088;2023-06-26T05:24:35;8.27;;;7.50;;
11735;SDS011;5924;51.398;7.088;2023-06-26T05:27:01;8.13;;;7.33;;
11735;SDS011;5924;51.398;7.088;2023-06-26T05:29:27;7.63;;;6.87;;
11735;SDS011;5924;51.398;7.088;2023-06-26T05:31:55;8.03;;;7.27;;
11735;SDS011;5924;51.398;7.088;2023-06-26T05:34:25;11.03;;;8.40;;
11735;SDS011;5924;51.398;7.088;2023-06-26T05:36:55;14.60;;;6.53;;
11735;SDS011;5924;51.398;7.088;2023-06-26T05:39:23;7.60;;;6.90;;
11735;SDS011;5924;51.398;7.088;2023-06-26T05:41:49;7.60;;;7.00;;
11735;SDS011;5924;51.398;7.088;2023-06-26T05:44:15;12.77;;;6.87;;
11735;SDS011;5924;51.398;7.088;2023-06-26T05:46:41;7.40;;;6.67;;
11735;SDS011;5924;51.398;7.088;2023-06-26T05:49:07;8.83;;;6.37;;
11735;SDS011;5924;51.398;7.088;2023-06-26T05:51:33;9.33;;;6.43;;
11735;SDS011;5924;51.398;7.088;2023-06-26T05:53:59;7.90;;;6.97;;
11735;SDS011;5924;51.398;7.088;2023-06-26T05:56:25;9.83;;;6.40;;
11735;SDS011;5924;51.398;7.088;2023-06-26T05:58:51;6.40;;;5.80;;
11735;SDS011;5924;51.398;7.088;2023-06-26T06:01:18;8.50;;;6.20;;
11735;SDS011;5924;51.398;7.088;2023-06-26T06:03:44;6.67;;;5.60;;
11735;SDS011;5924;51.398;7.088;2023-06-26T06:06:10;9.47;;;6.67;;
11735;SDS011;5924;51.398;7.088;2023-06-26T06:08:36;6.47;;;5.17;;
11735;SDS011;5924;51.398;7.088;2023-06-26T06:11:02;5.93;;;5.50;;
11735;SDS011;5924;51.398;7.088;2023-06-26T06:13:28;5.40;;;5.10;;
11735;SDS011;5924;51.398;7.088;2023-06-26T06:15:53;6.30;;;5.63;;
11735;SDS011;5924;51.398;7.088;2023-06-26T06:18:20;5.60;;;5.30;;
11735;SDS011;5924;51.398;7.088;2023-06-26T06:20:46;8.57;;;5.60;;
11735;SDS011;5924;51.398;7.088;2023-06-26T06:23:12;8.37;;;5.10;;
11735;SDS011;5924;51.398;7.088;2023-06-26T06:25:37;7.23;;;5.90;;
11735;SDS011;5924;51.398;7.088;2023-06-26T06:28:04;6.83;;;5.77;;
11735;SDS011;5924;51.398;7.088;2023-06-26T06:30:30;8.80;;;6.00;;
11735;SDS011;5924;51.398;7.088;2023-06-26T06:32:56;5.60;;;5.10;;
11735;SDS011;5924;51.398;7.088;2023-06-26T06:35:22;6.40;;;5.83;;
11735;SDS011;5924;51.398;7.088;2023-06-26T06:37:48;6.03;;;5.53;;
11735;SDS011;5924;51.398;7.088;2023-06-26T06:40:14;6.20;;;5.53;;
11735;SDS011;5924;51.398;7.088;2023-06-26T06:42:40;10.83;;;6.60;;
11735;SDS011;5924;51.398;7.088;2023-06-26T06:45:05;7.17;;;6.47;;
11735;SDS011;5924;51.398;7.088;2023-06-26T06:47:33;6.50;;;5.67;;
11735;SDS011;5924;51.398;7.088;2023-06-26T06:49:59;20.23;;;6.63;;
11735;SDS011;5924;51.398;7.088;2023-06-26T06:52:33;7.80;;;5.90;;
11735;SDS011;5924;51.398;7.088;2023-06-26T06:55:00;8.47;;;5.33;;
11735;SDS011;5924;51.398;7.088;2023-06-26T06:57:30;9.87;;;5.87;;
11735;SDS011;5924;51.398;7.088;2023-06-26T06:59:55;5.50;;;5.00;;
11735;SDS011;5924;51.398;7.088;2023-06-26T07:02:21;7.20;;;4.97;;
11735;SDS011;5924;51.398;7.088;2023-06-26T07:04:47;10.87;;;5.57;;
11735;SDS011;5924;51.398;7.088;2023-06-26T07:07:12;6.23;;;5.63;;
11735;SDS011;5924;51.398;7.088;2023-06-26T07:09:41;6.30;;;4.83;;
11735;SDS011;5924;51.398;7.088;2023-06-26T07:12:06;5.70;;;5.20;;
11735;SDS011;5924;51.398;7.088;2023-06-26T07:14:32;6.93;;;5.10;;
11735;SDS011;5924;51.398;7.088;2023-06-26T07:16:58;6.63;;;5.33;;
11735;SDS011;5924;51.398;7.088;2023-06-26T07:19:23;8.00;;;5.83;;
11735;SDS011;5924;51.398;7.088;2023-06-26T07:21:49;18.33;;;7.20;;
11735;SDS011;5924;51.398;7.088;2023-06-26T07:24:14;13.20;;;6.20;;
11735;SDS011;5924;51.398;7.088;2023-06-26T07:26:40;6.93;;;5.73;;
11735;SDS011;5924;51.398;7.088;2023-06-26T07:29:06;10.77;;;6.70;;
11735;SDS011;5924;51.398;7.088;2023-06-26T07:31:32;10.33;;;6.07;;
11735;SDS011;5924;51.398;7.088;2023-06-26T07:33:57;18.53;;;7.00;;
11735;SDS011;5924;51.398;7.088;2023-06-26T07:36:23;10.33;;;7.20;;
11735;SDS011;5924;51.398;7.088;2023-06-26T07:38:48;9.20;;;7.50;;
11735;SDS011;5924;51.398;7.088;2023-06-26T07:41:14;11.20;;;7.57;;
11735;SDS011;5924;51.398;7.088;2023-06-26T07:43:39;9.43;;;6.70;;
11735;SDS011;5924;51.398;7.088;2023-06-26T07:46:05;12.93;;;7.47;;
11735;SDS011;5924;51.398;7.088;2023-06-26T07:48:31;7.13;;;6.43;;
11735;SDS011;5924;51.398;7.088;2023-06-26T07:50:56;8.70;;;7.23;;
11735;SDS011;5924;51.398;7.088;2023-06-26T07:53:22;7.43;;;6.73;;
11735;SDS011;5924;51.398;7.088;2023-06-26T07:55:48;8.97;;;7.23;;
11735;SDS011;5924;51.398;7.088;2023-06-26T07:58:13;11.37;;;6.10;;
11735;SDS011;5924;51.398;7.088;2023-06-26T08:00:39;12.53;;;6.57;;
11735;SDS011;5924;51.398;7.088;2023-06-26T08:03:05;13.63;;;7.20;;
11735;SDS011;5924;51.398;7.088;2023-06-26T08:05:31;20.00;;;6.73;;
11735;SDS011;5924;51.398;7.088;2023-06-26T08:07:57;10.00;;;7.23;;
11735;SDS011;5924;51.398;7.088;2023-06-26T08:10:22;13.30;;;7.47;;
11735;SDS011;5924;51.398;7.088;2023-06-26T08:12:48;9.97;;;6.43;;
11735;SDS011;5924;51.398;7.088;2023-06-26T08:15:15;11.77;;;6.70;;
11735;SDS011;5924;51.398;7.088;2023-06-26T08:17:41;8.77;;;6.73;;
11735;SDS011;5924;51.398;7.088;2023-06-26T08:20:07;10.70;;;5.83;;
11735;SDS011;5924;51.398;7.088;2023-06-26T08:22:33;8.60;;;6.23;;
11735;SDS011;5924;51.398;7.088;2023-06-26T08:24:58;10.50;;;6.50;;
11735;SDS011;5924;51.398;7.088;2023-06-26T08:27:24;9.73;;;6.83;;
11735;SDS011;5924;51.398;7.088;2023-06-26T08:29:50;7.27;;;6.57;;
11735;SDS011;5924;51.398;7.088;2023-06-26T08:32:16;10.97;;;7.43;;
11735;SDS011;5924;51.398;7.088;2023-06-26T08:34:42;13.43;;;8.43;;
11735;SDS011;5924;51.398;7.088;2023-06-26T08:37:07;14.47;;;9.50;;
11735;SDS011;5924;51.398;7.088;2023-06-26T08:39:36;11.13;;;10.13;;
11735;SDS011;5924;51.398;7.088;2023-06-26T08:42:02;13.00;;;10.10;;
11735;SDS011;5924;51.398;7.088;2023-06-26T08:44:27;17.87;;;9.60;;
11735;SDS011;5924;51.398;7.088;2023-06-26T08:46:53;22.13;;;10.57;;
11735;SDS011;5924;51.398;7.088;2023-06-26T08:49:25;10.37;;;8.67;;
11735;SDS011;5924;51.398;7.088;2023-06-26T08:52:06;18.80;;;8.20;;
11735;SDS011;5924;51.398;7.088;2023-06-26T08:54:40;9.97;;;8.97;;
11735;SDS011;5924;51.398;7.088;2023-06-26T08:57:11;12.77;;;7.33;;
11735;SDS011;5924;51.398;7.088;2023-06-26T08:59:37;6.87;;;5.83;;
11735;SDS011;5924;51.398;7.088;2023-06-26T09:02:04;7.40;;;5.67;;
11735;SDS011;5924;51.398;7.088;2023-06-26T09:04:30;8.80;;;5.60;;
11735;SDS011;5924;51.398;7.088;2023-06-26T09:06:56;9.17;;;5.10;;
11735;SDS011;5924;51.398;7.088;2023-06-26T09:09:21;5.40;;;4.67;;
11735;SDS011;5924;51.398;7.088;2023-06-26T09:11:47;10.27;;;4.90;;
11735;SDS011;5924;51.398;7.088;2023-06-26T09:14:13;13.07;;;4.70;;
11735;SDS011;5924;51.398;7.088;2023-06-26T09:16:39;5.43;;;4.97;;
11735;SDS011;5924;51.398;7.088;2023-06-26T09:19:10;5.20;;;4.73;;
11735;SDS011;5924;51.398;7.088;2023-06-26T09:21:38;8.57;;;5.17;;
11735;SDS011;5924;51.398;7.088;2023-06-26T09:24:08;15.27;;;5.23;;
11735;SDS011;5924;51.398;7.088;2023-06-26T09:26:38;7.97;;;4.57;;
11735;SDS011;5924;51.398;7.088;2023-06-26T09:29:06;5.53;;;4.17;;
11735;SDS011;5924;51.398;7.088;2023-06-26T09:31:32;6.50;;;4.27;;
11735;SDS011;5924;51.398;7.088;2023-06-26T09:33:59;9.83;;;3.87;;
11735;SDS011;5924;51.398;7.088;2023-06-26T09:36:27;13.67;;;4.77;;
11735;SDS011;5924;51.398;7.088;2023-06-26T09:38:57;4.90;;;4.40;;
11735;SDS011;5924;51.398;7.088;2023-06-26T09:41:24;5.87;;;4.03;;
11735;SDS011;5924;51.398;7.088;2023-06-26T09:43:50;8.57;;;4.33;;
11735;SDS011;5924;51.398;7.088;2023-06-26T09:46:25;6.80;;;4.13;;
11735;SDS011;5924;51.398;7.088;2023-06-26T09:49:01;4.30;;;3.90;;
11735;SDS011;5924;51.398;7.088;2023-06-26T09:51:29;5.97;;;4.20;;
11735;SDS011;5924;51.398;7.088;2023-06-26T09:53:59;9.73;;;4.20;;
11735;SDS011;5924;51.398;7.088;2023-06-26T09:56:25;8.10;;;4.00;;
11735;SDS011;5924;51.398;7.088;2023-06-26T09:58:52;4.30;;;3.90;;
11735;SDS011;5924;51.398;7.088;2023-06-26T10:01:23;8.80;;;3.67;;
11735;SDS011;5924;51.398;7.088;2023-06-26T10:03:49;4.30;;;3.90;;
11735;SDS011;5924;51.398;7.088;2023-06-26T10:06:15;6.23;;;4.03;;
11735;SDS011;5924;51.398;7.088;2023-06-26T10:08:44;4.70;;;3.90;;
11735;SDS011;5924;51.398;7.088;2023-06-26T10:11:11;5.03;;;3.27;;
11735;SDS011;5924;51.398;7.088;2023-06-26T10:13:42;7.13;;;3.87;;
11735;SDS011;5924;51.398;7.088;2023-06-26T10:16:11;9.17;;;3.70;;
11735;SDS011;5924;51.398;7.088;2023-06-26T10:18:38;6.60;;;3.50;;
11735;SDS011;5924;51.398;7.088;2023-06-26T10:21:05;6.63;;;3.90;;
11735;SDS011;5924;51.398;7.088;2023-06-26T10:23:33;6.97;;;3.60;;
11735;SDS011;5924;51.398;7.088;2023-06-26T10:26:01;4.03;;;3.67;;
11735;SDS011;5924;51.398;7.088;2023-06-26T10:28:30;3.83;;;3.03;;
11735;SDS011;5924;51.398;7.088;2023-06-26T10:30:58;5.57;;;3.97;;
11735;SDS011;5924;51.398;7.088;2023-06-26T10:33:26;3.30;;;3.17;;
11735;SDS011;5924;51.398;7.088;2023-06-26T10:35:52;6.40;;;3.43;;
11735;SDS011;5924;51.398;7.088;2023-06-26T10:38:17;4.97;;;3.57;;
11735;SDS011;5924;51.398;7.088;2023-06-26T10:40:47;3.87;;;3.43;;
11735;SDS011;5924;51.398;7.088;2023-06-26T10:43:16;4.23;;;3.83;;
11735;SDS011;5924;51.398;7.088;2023-06-26T10:45:47;4.47;;;3.00;;
11735;SDS011;5924;51.398;7.088;2023-06-26T10:48:19;3.90;;;2.93;;
11735;SDS011;5924;51.398;7.088;2023-06-26T10:50:49;6.20;;;3.60;;
11735;SDS011;5924;51.398;7.088;2023-06-26T10:55:54;3.37;;;3.07;;
11735;SDS011;5924;51.398;7.088;2023-06-26T10:58:29;3.80;;;3.50;;
11735;SDS011;5924;51.398;7.088;2023-06-26T11:03:49;4.40;;;2.43;;
11735;SDS011;5924;51.398;7.088;2023-06-26T11:06:24;3.10;;;3.00;;
11735;SDS011;5924;51.398;7.088;2023-06-26T11:08:50;2.77;;;2.53;;
11735;SDS011;5924;51.398;7.088;2023-06-26T11:11:55;2.60;;;2.50;;
11735;SDS011;5924;51.398;7.088;2023-06-26T11:14:19;5.33;;;3.37;;
11735;SDS011;5924;51.398;7.088;2023-06-26T11:16:46;4.53;;;2.50;;
11735;SDS011;5924;51.398;7.088;2023-06-26T11:19:13;7.10;;;3.07;;
11735;SDS011;5924;51.398;7.088;2023-06-26T11:21:39;3.00;;;2.87;;
11735;SDS011;5924;51.398;7.088;2023-06-26T11:24:08;3.33;;;3.03;;
11735;SDS011;5924;51.398;7.088;2023-06-26T11:26:42;3.03;;;2.40;;
11735;SDS011;5924;51.398;7.088;2023-06-26T11:29:09;3.10;;;2.90;;
11735;SDS011;5924;51.398;7.088;2023-06-26T11:31:39;4.60;;;4.20;;
11735;SDS011;5924;51.398;7.088;2023-06-26T11:34:10;3.10;;;3.00;;
11735;SDS011;5924;51.398;7.088;2023-06-26T11:36:37;2.87;;;2.50;;
11735;SDS011;5924;51.398;7.088;2023-06-26T11:39:05;4.27;;;2.27;;
11735;SDS011;5924;51.398;7.088;2023-06-26T11:41:33;2.33;;;2.10;;
11735;SDS011;5924;51.398;7.088;2023-06-26T11:46:28;2.13;;;2.03;;
11735;SDS011;5924;51.398;7.088;2023-06-26T11:48:55;4.03;;;2.30;;
11735;SDS011;5924;51.398;7.088;2023-06-26T11:51:20;2.30;;;2.10;;
11735;SDS011;5924;51.398;7.088;2023-06-26T11:53:46;3.57;;;2.40;;
11735;SDS011;5924;51.398;7.088;2023-06-26T11:56:14;2.83;;;2.17;;
11735;SDS011;5924;51.398;7.088;2023-06-26T12:01:26;2.17;;;2.03;;
11735;SDS011;5924;51.398;7.088;2023-06-26T12:03:58;4.93;;;2.33;;
11735;SDS011;5924;51.398;7.088;2023-06-26T12:06:26;1.87;;;1.77;;
11735;SDS011;5924;51.398;7.088;2023-06-26T12:08:52;3.67;;;1.80;;
11735;SDS011;5924;51.398;7.088;2023-06-26T12:11:19;6.50;;;3.30;;
11735;SDS011;5924;51.398;7.088;2023-06-26T12:13:47;4.63;;;2.03;;
11735;SDS011;5924;51.398;7.088;2023-06-26T12:16:14;2.30;;;1.70;;
11735;SDS011;5924;51.398;7.088;2023-06-26T12:18:39;2.30;;;2.03;;
11735;SDS011;5924;51.398;7.088;2023-06-26T12:21:06;2.40;;;1.53;;
11735;SDS011;5924;51.398;7.088;2023-06-26T12:23:32;3.33;;;1.93;;
11735;SDS011;5924;51.398;7.088;2023-06-26T12:26:19;1.60;;;1.50;;
11735;SDS011;5924;51.398;7.088;2023-06-26T12:28:46;1.93;;;1.80;;
11735;SDS011;5924;51.398;7.088;2023-06-26T12:31:13;1.90;;;1.50;;
11735;SDS011;5924;51.398;7.088;2023-06-26T12:33:39;2.23;;;2.03;;
11735;SDS011;5924;51.398;7.088;2023-06-26T12:36:21;2.20;;;1.23;;
11735;SDS011;5924;51.398;7.088;2023-06-26T12:38:48;3.60;;;1.60;;
11735;SDS011;5924;51.398;7.088;2023-06-26T12:41:14;1.60;;;1.50;;
11735;SDS011;5924;51.398;7.088;2023-06-26T12:43:40;1.73;;;1.63;;
11735;SDS011;5924;51.398;7.088;2023-06-26T12:46:06;1.07;;;1.07;;
11735;SDS011;5924;51.398;7.088;2023-06-26T12:48:38;4.73;;;1.50;;
11735;SDS011;5924;51.398;7.088;2023-06-26T12:51:14;1.30;;;1.00;;
11735;SDS011;5924;51.398;7.088;2023-06-26T12:53:41;1.30;;;1.20;;
11735;SDS011;5924;51.398;7.088;2023-06-26T12:56:10;4.80;;;1.80;;
11735;SDS011;5924;51.398;7.088;2023-06-26T12:58:36;1.27;;;1.07;;
11735;SDS011;5924;51.398;7.088;2023-06-26T13:01:03;1.20;;;1.10;;
11735;SDS011;5924;51.398;7.088;2023-06-26T13:03:30;3.50;;;1.20;;
11735;SDS011;5924;51.398;7.088;2023-06-26T13:05:56;1.27;;;1.10;;
11735;SDS011;5924;51.398;7.088;2023-06-26T13:08:22;1.30;;;1.20;;
11735;SDS011;5924;51.398;7.088;2023-06-26T13:10:47;3.43;;;1.73;;
11735;SDS011;5924;51.398;7.088;2023-06-26T13:13:13;2.10;;;1.70;;
11735;SDS011;5924;51.398;7.088;2023-06-26T13:15:39;1.40;;;1.07;;
11735;SDS011;5924;51.398;7.088;2023-06-26T13:18:04;2.20;;;1.47;;
11735;SDS011;5924;51.398;7.088;2023-06-26T13:20:30;2.00;;;1.17;;
11735;SDS011;5924;51.398;7.088;2023-06-26T13:22:56;2.77;;;1.33;;
11735;SDS011;5924;51.398;7.088;2023-06-26T13:25:22;4.40;;;1.33;;
11735;SDS011;5924;51.398;7.088;2023-06-26T13:27:48;1.53;;;0.83;;
11735;SDS011;5924;51.398;7.088;2023-06-26T13:30:14;5.23;;;1.10;;
11735;SDS011;5924;51.398;7.088;2023-06-26T13:32:40;0.80;;;0.80;;
11735;SDS011;5924;51.398;7.088;2023-06-26T13:35:06;3.70;;;0.90;;
11735;SDS011;5924;51.398;7.088;2023-06-26T13:37:32;1.60;;;0.83;;
11735;SDS011;5924;51.398;7.088;2023-06-26T13:40:01;1.40;;;1.30;;
11735;SDS011;5924;51.398;7.088;2023-06-26T13:42:28;1.23;;;1.10;;
11735;SDS011;5924;51.398;7.088;2023-06-26T13:44:54;1.13;;;1.00;;
11735;SDS011;5924;51.398;7.088;2023-06-26T13:47:20;1.00;;;1.00;;
11735;SDS011;5924;51.398;7.088;2023-06-26T13:49:46;1.20;;;1.10;;
11735;SDS011;5924;51.398;7.088;2023-06-26T13:52:11;1.23;;;1.10;;
11735;SDS011;5924;51.398;7.088;2023-06-26T13:54:37;1.17;;;1.07;;
11735;SDS011;5924;51.398;7.088;2023-06-26T13:57:05;1.10;;;1.00;;
11735;SDS011;5924;51.398;7.088;2023-06-26T13:59:31;1.00;;;1.00;;
11735;SDS011;5924;51.398;7.088;2023-06-26T14:01:58;6.70;;;1.40;;
11735;SDS011;5924;51.398;7.088;2023-06-26T14:04:24;1.30;;;1.20;;
11735;SDS011;5924;51.398;7.088;2023-06-26T14:06:51;0.87;;;0.87;;
11735;SDS011;5924;51.398;7.088;2023-06-26T14:09:17;3.47;;;1.10;;
11735;SDS011;5924;51.398;7.088;2023-06-26T14:11:43;2.10;;;1.20;;
11735;SDS011;5924;51.398;7.088;2023-06-26T14:14:09;3.23;;;1.20;;
11735;SDS011;5924;51.398;7.088;2023-06-26T14:16:35;2.37;;;1.33;;
11735;SDS011;5924;51.398;7.088;2023-06-26T14:19:00;1.17;;;1.17;;
11735;SDS011;5924;51.398;7.088;2023-06-26T14:21:27;1.57;;;1.43;;
11735;SDS011;5924;51.398;7.088;2023-06-26T14:23:53;4.20;;;1.53;;
11735;SDS011;5924;51.398;7.088;2023-06-26T14:26:20;1.30;;;1.20;;
11735;SDS011;5924;51.398;7.088;2023-06-26T14:28:45;3.43;;;1.20;;
11735;SDS011;5924;51.398;7.088;2023-06-26T14:31:11;1.83;;;1.27;;
11735;SDS011;5924;51.398;7.088;2023-06-26T14:33:37;8.33;;;1.20;;
11735;SDS011;5924;51.398;7.088;2023-06-26T14:36:03;1.60;;;1.30;;
11735;SDS011;5924;51.398;7.088;2023-06-26T14:38:29;1.20;;;1.20;;
11735;SDS011;5924;51.398;7.088;2023-06-26T14:40:54;1.17;;;1.10;;
11735;SDS011;5924;51.398;7.088;2023-06-26T14:43:20;3.37;;;1.40;;
11735;SDS011;5924;51.398;7.088;2023-06-26T14:45:46;1.43;;;1.37;;
11735;SDS011;5924;51.398;7.088;2023-06-26T14:48:12;2.67;;;1.10;;
11735;SDS011;5924;51.398;7.088;2023-06-26T14:50:37;1.47;;;1.00;;
11735;SDS011;5924;51.398;7.088;2023-06-26T14:53:03;1.77;;;1.30;;
11735;SDS011;5924;51.398;7.088;2023-06-26T14:55:29;3.70;;;1.10;;
11735;SDS011;5924;51.398;7.088;2023-06-26T14:57:55;1.93;;;1.00;;
11735;SDS011;5924;51.398;7.088;2023-06-26T15:00:20;1.53;;;1.10;;
11735;SDS011;5924;51.398;7.088;2023-06-26T15:02:47;2.53;;;1.03;;
11735;SDS011;5924;51.398;7.088;2023-06-26T15:05:13;0.90;;;0.90;;
11735;SDS011;5924;51.398;7.088;2023-06-26T15:07:38;4.27;;;1.40;;
11735;SDS011;5924;51.398;7.088;2023-06-26T15:10:04;0.90;;;0.90;;
11735;SDS011;5924;51.398;7.088;2023-06-26T15:12:31;1.00;;;1.00;;